Colonial Heights, VA (23834)

6:46 AM EDT on September 19, 2014 (GMT -0400)
Skywarn Spotter CFD0022 | Change Station
CLOSE
Current Station
Personal Weather Station
Location: Colonial Heights, VA
Elevation: 60 ft
Nearby Weather Stations

Elev 60 ft 37.29 °N, 77.40 °W | Updated 10 seconds ago

Overcast
Overcast
64.2 °F
Feels Like 64.2 °F
N
0.0
Wind Variable Wind from NE
Gusts 1.6 mph

Today
High -- | Low -- °F
--% Chance of Precip.
Yesterday
High -- | Low -- °F
Precip. -- in
6:54 AM 7:11 PM
Waning Crescent, 20% visible
Pressure 30.18 in
Visibility 10.0 miles
Clouds Overcast 4600 ft
Dew Point 53 °F
Humidity 66%
Rainfall 0.00 in
Snow Depth Not available.
UV 0 out of 12
Pollen 5.70 out of 12
Ozone Good
PM2.5 Good
Flu Activity Not available.
METAR KPTB 191035Z AUTO 00000KT 10SM OVC046 17/15 A3018 RMK AO2 T01700145

More Conditions Fewer Conditions

Pressure 30.18 in
Visibility 10.0 miles
Clouds Overcast 4600 ft
Dew Point 53 °F
Humidity 66%
Rainfall 0.00 in
Snow Depth Not available.
UV 0 out of 12
Pollen 5.70 out of 12
Ozone Good
PM2.5 Good
Flu Activity Not available.
METAR KPTB 191035Z AUTO 00000KT 10SM OVC046 17/15 A3018 RMK AO2 T01700145

More Conditions Fewer Conditions

10-Day Weather Forecast

Almanac

Astronomy

Sep. 19, 2014 Rise Set
Actual Time 6:54 AM EDT 7:11 PM EDT
Civil Twilight 6:28 AM EDT 7:37 PM EDT
Nautical Twilight 5:58 AM EDT 8:07 PM EDT
Astronomical Twilight 5:27 AM EDT 8:38 PM EDT
Moon 2:42 AM EDT 4:34 PM EDT
Length of Visible Light 13h 08m
Length of Day
12h 16m
Tomorrow will be 2m 22s shorter.
Waning Crescent, 20% of the Moon is Illuminated
Today
Waning Crescent
Sep 24
New
Oct 1
First Quarter
Oct 8
Full
Oct 15
Last Quarter

Today's Extremes

State Highs State Lows

Community

WunderPhotos

Upload Photos

1,754,591 photos uploaded!

Nearby

Air Quality

  Air Quality AQ Index Pollutant
Yesterday Good
OZONE
Yesterday Good
PM2.5
Current Good
PM2.5
Current Good
OZONE
Friday Good
PM2.5

Snow Depth

Station Depth Elevation
No new snow has been reported.

Earthquake Activity

City Distance Mag. Time & Date
No recent earthquake activity has been reported nearby.
Minimum magnitude displayed is 2.5.

Coastal Water Temperatures

Place Temperature
No Stations Reporting

Nearby Weather Stations